This is the latest recevied weather packets stored in our database for station/object E22ZMG-1. If no packets are shown the sender has not sent any weather packets the latest 10 day(s).
| Time | Temp. | Humidity | Pressure | Rain* | Wind** | Luminosity | Snow |
|---|---|---|---|---|---|---|---|
| 1777592740 | 31.11° C | 54% | 976 hPa | - | - | 0 W/m² | - |
| 1777592112 | 31.67° C | 52% | 976 hPa | - | - | 0 W/m² | - |
| 1777590854 | 31.11° C | 53% | 975 hPa | - | - | 0 W/m² | - |
| 1777590229 | 31.67° C | 52% | 975 hPa | - | - | 0 W/m² | - |
| 1777589603 | 31.11° C | 54% | 975 hPa | - | - | 0 W/m² | - |
| 1777588978 | 30.56° C | 55% | 975 hPa | - | - | 0 W/m² | - |
| 1777588352 | 30.56° C | 54% | 975 hPa | - | - | 0 W/m² | - |
| 1777587728 | 30.56° C | 55% | 975 hPa | - | - | 0 W/m² | - |
| 1777587102 | 31.11° C | 53% | 975 hPa | - | - | 0 W/m² | - |
| 1777586476 | 31.11° C | 54% | 975 hPa | - | - | 0 W/m² | - |
| 1777585852 | 31.67° C | 52% | 975 hPa | - | - | 0 W/m² | - |
| 1777585227 | 30.56° C | 55% | 975 hPa | - | - | 0 W/m² | - |
| 1777584602 | 31.67° C | 53% | 975 hPa | - | - | 0 W/m² | - |
| 1777583977 | 32.22° C | 52% | 975 hPa | - | - | 0 W/m² | - |
| 1777583351 | 31.67° C | 52% | 975 hPa | - | - | 0 W/m² | - |
| 1777582725 | 31.67° C | 53% | 975 hPa | - | - | 0 W/m² | - |
| 1777582100 | 31.67° C | 53% | 974 hPa | - | - | 0 W/m² | - |
| 1777581475 | 30.56° C | 56% | 975 hPa | - | - | 0 W/m² | - |
| 1777580849 | 31.11° C | 54% | 974 hPa | - | - | 0 W/m² | - |
| 1777580225 | 32.22° C | 52% | 974 hPa | - | - | 0 W/m² | - |
| 1777579599 | 31.67° C | 52% | 974 hPa | - | - | 0 W/m² | - |
| 1777578974 | 32.22° C | 51% | 974 hPa | - | - | 0 W/m² | - |
| 1777578348 | 32.78° C | 50% | 974 hPa | - | - | 0 W/m² | - |
| 1777577723 | 33.33° C | 49% | 974 hPa | - | - | 0 W/m² | - |
| 1777577097 | 32.22° C | 50% | 975 hPa | - | - | 0 W/m² | - |
* Rain since midnight (hover to see other rain measurements)
** Current wind speed in m/s (hover to see current wind gust speed)